Time;durP1;ratioP1;P1;durP2;ratioP2;P2;SDS_P1;SDS_P2;PMS_P1;PMS_P2;Temp;Humidity;BMP_temperature;BMP_pressure;BME280_temperature;BME280_humidity;BME280_pressure;Samples;Min_cycle;Max_cycle;Signal;HPM_P1;HPM_P2
2022/02/26 00:02:21;;;;;;;0.70;0.50;;;;;;;;;;5070226;28;20446;-78
2022/02/26 00:04:48;;;;;;;0.80;0.60;;;;;;;;;;5070830;28;20856;-78
2022/02/26 00:07:15;;;;;;;0.70;0.50;;;;;;;;;;5060975;28;20421;-76
2022/02/26 00:09:41;;;;;;;0.70;0.50;;;;;;;;;;5067303;28;20416;-77
2022/02/26 00:12:08;;;;;;;0.70;0.50;;;;;;;;;;5086587;28;20485;-77
2022/02/26 00:14:37;;;;;;;0.70;0.50;;;;;;;;;;5049066;28;20814;-78
2022/02/26 00:17:05;;;;;;;0.70;0.50;;;;;;;;;;5049206;28;20412;-78
2022/02/26 00:19:34;;;;;;;0.70;0.50;;;;;;;;;;5050717;28;20405;-78
2022/02/26 00:22:01;;;;;;;0.70;0.57;;;;;;;;;;5054648;28;21008;-77
2022/02/26 00:24:27;;;;;;;0.70;0.57;;;;;;;;;;5067899;28;20415;-79
2022/02/26 00:26:55;;;;;;;0.70;0.50;;;;;;;;;;5070454;28;20415;-78
2022/02/26 00:29:22;;;;;;;0.70;0.60;;;;;;;;;;5050072;28;20426;-78
2022/02/26 00:31:49;;;;;;;0.70;0.50;;;;;;;;;;5068747;28;20408;-78
2022/02/26 00:34:16;;;;;;;0.77;0.60;;;;;;;;;;5068961;28;20406;-77
2022/02/26 00:36:45;;;;;;;0.70;0.50;;;;;;;;;;5060193;28;20421;-80
2022/02/26 00:39:11;;;;;;;0.70;0.50;;;;;;;;;;5068932;28;20844;-78
2022/02/26 00:41:38;;;;;;;0.80;0.80;;;;;;;;;;5052808;28;20443;-79
2022/02/26 00:44:04;;;;;;;3.10;0.80;;;;;;;;;;5051973;28;20470;-79
2022/02/26 00:46:33;;;;;;;0.70;0.50;;;;;;;;;;5054960;28;20435;-79
2022/02/26 00:51:48;;;;;;;0.70;0.50;;;;;;;;;;5070297;28;20487;-77
2022/02/26 00:54:15;;;;;;;0.90;0.90;;;;;;;;;;5066345;28;20929;-77
2022/02/26 00:56:42;;;;;;;0.70;0.50;;;;;;;;;;5085848;28;20469;-78
2022/02/26 00:59:10;;;;;;;0.70;0.57;;;;;;;;;;5063647;28;20468;-78
2022/02/26 01:01:37;;;;;;;0.70;0.60;;;;;;;;;;5048555;28;20417;-79
2022/02/26 01:04:04;;;;;;;0.70;0.70;;;;;;;;;;5057742;28;20421;-78
2022/02/26 01:06:31;;;;;;;0.70;0.60;;;;;;;;;;5073109;28;20453;-78
2022/02/26 01:08:59;;;;;;;0.70;0.50;;;;;;;;;;5070032;28;21002;-79
2022/02/26 01:11:25;;;;;;;0.70;0.50;;;;;;;;;;5052290;28;20455;-78
2022/02/26 01:13:53;;;;;;;0.70;0.60;;;;;;;;;;5053391;28;20406;-79
2022/02/26 01:16:20;;;;;;;0.70;0.50;;;;;;;;;;5054130;28;20393;-76
2022/02/26 01:18:47;;;;;;;0.70;0.50;;;;;;;;;;5051943;28;20416;-77
2022/02/26 01:21:14;;;;;;;0.70;0.60;;;;;;;;;;5067968;28;20408;-77
2022/02/26 01:23:42;;;;;;;0.80;0.80;;;;;;;;;;5068534;28;20422;-78
2022/02/26 01:26:10;;;;;;;0.70;0.50;;;;;;;;;;5073782;28;20403;-77
2022/02/26 01:28:37;;;;;;;1.10;1.00;;;;;;;;;;5073224;28;20425;-78
2022/02/26 01:31:04;;;;;;;0.70;0.50;;;;;;;;;;5071312;28;20510;-77
2022/02/26 01:33:30;;;;;;;0.70;0.50;;;;;;;;;;5062471;28;20401;-77
2022/02/26 01:36:00;;;;;;;0.70;0.50;;;;;;;;;;5055216;28;20827;-78
2022/02/26 01:38:27;;;;;;;0.70;0.50;;;;;;;;;;5072318;28;20408;-78
2022/02/26 01:40:55;;;;;;;0.90;0.80;;;;;;;;;;5070857;28;20843;-78
2022/02/26 01:43:25;;;;;;;0.70;0.50;;;;;;;;;;5071994;28;20420;-78
2022/02/26 01:46:00;;;;;;;0.70;0.50;;;;;;;;;;5055659;28;20419;-78
2022/02/26 01:48:32;;;;;;;1.10;1.00;;;;;;;;;;5071793;28;20415;-78
2022/02/26 01:51:01;;;;;;;0.88;0.70;;;;;;;;;;5067255;28;20627;-78
2022/02/26 01:53:31;;;;;;;0.70;0.63;;;;;;;;;;5053096;28;20409;-78
2022/02/26 01:56:01;;;;;;;0.80;0.70;;;;;;;;;;5052409;28;20947;-78
2022/02/26 01:58:37;;;;;;;0.70;0.50;;;;;;;;;;5051881;28;20517;-78
2022/02/26 02:01:11;;;;;;;1.50;1.20;;;;;;;;;;5051858;28;20418;-77
2022/02/26 02:03:40;;;;;;;0.70;0.50;;;;;;;;;;5061198;28;20451;-78
2022/02/26 02:06:10;;;;;;;0.70;0.70;;;;;;;;;;5056026;28;20412;-77
2022/02/26 02:08:39;;;;;;;0.70;0.60;;;;;;;;;;5067930;28;20924;-78
2022/02/26 02:11:12;;;;;;;1.40;1.30;;;;;;;;;;5052551;28;20433;-78
2022/02/26 02:13:47;;;;;;;0.70;0.50;;;;;;;;;;5035669;28;20817;-77
2022/02/26 02:16:19;;;;;;;0.90;0.90;;;;;;;;;;5051408;28;20905;-77
2022/02/26 02:18:51;;;;;;;0.80;0.70;;;;;;;;;;5056554;28;20899;-77
2022/02/26 02:21:20;;;;;;;0.70;0.60;;;;;;;;;;5070918;28;20396;-77
2022/02/26 02:23:50;;;;;;;1.20;1.10;;;;;;;;;;5051538;28;20421;-76
2022/02/26 02:26:18;;;;;;;0.70;0.50;;;;;;;;;;5052840;28;20406;-76
2022/02/26 02:28:49;;;;;;;0.70;0.50;;;;;;;;;;5051639;28;20417;-76
2022/02/26 02:31:18;;;;;;;0.70;0.60;;;;;;;;;;5051579;28;20890;-78
2022/02/26 02:33:51;;;;;;;0.70;0.50;;;;;;;;;;5069704;28;20820;-77
2022/02/26 02:36:19;;;;;;;0.70;0.50;;;;;;;;;;5054361;28;20472;-76
2022/02/26 02:38:48;;;;;;;0.70;0.50;;;;;;;;;;5051738;28;20415;-77
2022/02/26 02:41:21;;;;;;;0.70;0.52;;;;;;;;;;5072417;28;20396;-76
2022/02/26 02:43:49;;;;;;;0.70;0.50;;;;;;;;;;5070608;28;20420;-76
2022/02/26 02:46:21;;;;;;;0.70;0.50;;;;;;;;;;5069690;28;20919;-77
2022/02/26 02:48:50;;;;;;;0.73;0.63;;;;;;;;;;5036766;28;20432;-77
2022/02/26 02:51:20;;;;;;;0.70;0.60;;;;;;;;;;5052082;28;20496;-77
2022/02/26 02:53:47;;;;;;;0.70;0.50;;;;;;;;;;5052008;28;20894;-77
2022/02/26 02:56:14;;;;;;;0.70;0.50;;;;;;;;;;5050982;28;20410;-77
2022/02/26 02:58:43;;;;;;;0.70;0.67;;;;;;;;;;5060417;28;21290;-77
2022/02/26 03:01:10;;;;;;;0.70;0.50;;;;;;;;;;5062122;28;20421;-77
2022/02/26 03:03:37;;;;;;;0.70;0.60;;;;;;;;;;5067899;28;20821;-75
2022/02/26 03:06:05;;;;;;;0.70;0.60;;;;;;;;;;5050337;28;20466;-77
2022/02/26 03:08:32;;;;;;;0.70;0.50;;;;;;;;;;5071542;28;20411;-77
2022/02/26 03:10:59;;;;;;;0.70;0.55;;;;;;;;;;5070380;28;20517;-77
2022/02/26 03:13:26;;;;;;;0.70;0.50;;;;;;;;;;5070518;28;20465;-77
2022/02/26 03:15:55;;;;;;;0.73;0.70;;;;;;;;;;5067226;28;20412;-74
2022/02/26 03:18:22;;;;;;;0.70;0.50;;;;;;;;;;5053317;28;20465;-77
2022/02/26 03:20:49;;;;;;;0.70;0.50;;;;;;;;;;5069007;28;20484;-77
2022/02/26 03:23:16;;;;;;;0.70;0.50;;;;;;;;;;5070295;28;20477;-77
2022/02/26 03:25:46;;;;;;;0.70;0.50;;;;;;;;;;5072059;28;20415;-75
2022/02/26 03:28:13;;;;;;;0.70;0.50;;;;;;;;;;5068299;28;20781;-75
2022/02/26 03:30:40;;;;;;;0.70;0.50;;;;;;;;;;5050043;28;20826;-76
2022/02/26 03:33:09;;;;;;;0.70;0.50;;;;;;;;;;5051287;28;20413;-76
2022/02/26 03:35:37;;;;;;;0.80;0.70;;;;;;;;;;5049378;28;20830;-76
2022/02/26 03:38:03;;;;;;;0.70;0.50;;;;;;;;;;5062202;28;20464;-76
2022/02/26 03:40:32;;;;;;;0.70;0.70;;;;;;;;;;5055644;28;20418;-76
2022/02/26 03:42:59;;;;;;;0.70;0.60;;;;;;;;;;5083067;28;20481;-76
2022/02/26 03:45:26;;;;;;;0.70;0.50;;;;;;;;;;5054914;28;20407;-77
2022/02/26 03:47:53;;;;;;;0.70;0.50;;;;;;;;;;5068875;28;20486;-76
2022/02/26 03:50:21;;;;;;;0.70;0.50;;;;;;;;;;5069582;28;20466;-76
2022/02/26 03:52:48;;;;;;;0.80;0.50;;;;;;;;;;5055380;28;20414;-77
2022/02/26 03:55:15;;;;;;;0.80;0.60;;;;;;;;;;5061276;28;20412;-77
2022/02/26 03:57:46;;;;;;;1.00;0.90;;;;;;;;;;5057593;28;20877;-75
2022/02/26 04:00:13;;;;;;;0.70;0.60;;;;;;;;;;5050348;28;20484;-77
2022/02/26 04:02:41;;;;;;;0.70;0.50;;;;;;;;;;5051851;28;20488;-76
2022/02/26 04:05:08;;;;;;;0.70;0.50;;;;;;;;;;5069800;28;20822;-76
2022/02/26 04:07:40;;;;;;;0.70;0.50;;;;;;;;;;5069890;28;20408;-78
2022/02/26 04:10:07;;;;;;;0.70;0.50;;;;;;;;;;5066049;28;20436;-76
2022/02/26 04:12:34;;;;;;;0.70;0.50;;;;;;;;;;5038054;28;20451;-77
2022/02/26 04:15:01;;;;;;;0.70;0.50;;;;;;;;;;5052799;28;20421;-76
2022/02/26 04:17:29;;;;;;;0.70;0.50;;;;;;;;;;5070898;28;20416;-77
2022/02/26 04:19:56;;;;;;;1.20;0.70;;;;;;;;;;5069382;28;20442;-77
2022/02/26 04:22:23;;;;;;;0.70;0.52;;;;;;;;;;5069742;28;20434;-77
2022/02/26 04:24:51;;;;;;;0.80;0.70;;;;;;;;;;5055641;28;20451;-77
2022/02/26 04:27:18;;;;;;;0.70;0.50;;;;;;;;;;5054772;28;20419;-77
2022/02/26 04:29:45;;;;;;;0.70;0.60;;;;;;;;;;5081761;28;20605;-76
2022/02/26 04:32:31;;;;;;;0.80;0.80;;;;;;;;;;5055815;28;20411;-76
2022/02/26 04:34:58;;;;;;;0.80;0.60;;;;;;;;;;5069240;28;20830;-78
2022/02/26 04:37:25;;;;;;;0.70;0.50;;;;;;;;;;5069258;28;20408;-75
2022/02/26 04:39:53;;;;;;;0.80;0.60;;;;;;;;;;5056058;28;20413;-75
2022/02/26 04:42:20;;;;;;;0.70;0.50;;;;;;;;;;5054561;28;20812;-77
2022/02/26 04:44:47;;;;;;;0.70;0.50;;;;;;;;;;5074248;28;21057;-75
2022/02/26 04:47:14;;;;;;;0.73;0.52;;;;;;;;;;5072838;28;20447;-77
2022/02/26 04:49:41;;;;;;;0.70;0.50;;;;;;;;;;5074131;28;20753;-75
2022/02/26 04:52:11;;;;;;;0.70;0.50;;;;;;;;;;5072067;28;20903;-77
2022/02/26 04:54:38;;;;;;;1.20;1.10;;;;;;;;;;5051797;28;20628;-77
2022/02/26 04:57:06;;;;;;;0.70;0.50;;;;;;;;;;5072257;28;20760;-77
2022/02/26 04:59:33;;;;;;;1.00;0.90;;;;;;;;;;5072607;28;20815;-77
2022/02/26 05:02:00;;;;;;;0.80;0.60;;;;;;;;;;5073254;28;20764;-75
2022/02/26 05:04:27;;;;;;;0.80;0.68;;;;;;;;;;5074042;28;20418;-75
2022/02/26 05:06:54;;;;;;;0.70;0.60;;;;;;;;;;5065494;28;20415;-75
2022/02/26 05:09:21;;;;;;;0.70;0.50;;;;;;;;;;5074434;28;20450;-75
2022/02/26 05:11:48;;;;;;;1.10;1.00;;;;;;;;;;5056298;28;20446;-76
2022/02/26 05:14:16;;;;;;;1.30;1.20;;;;;;;;;;5072650;28;20405;-76
2022/02/26 05:16:44;;;;;;;1.30;1.20;;;;;;;;;;5071214;28;20430;-75
2022/02/26 05:19:11;;;;;;;1.00;0.90;;;;;;;;;;5072883;28;20951;-75
2022/02/26 05:21:37;;;;;;;0.80;0.70;;;;;;;;;;5055870;28;20433;-77
2022/02/26 05:24:05;;;;;;;0.70;0.50;;;;;;;;;;5074165;28;20395;-76
2022/02/26 05:26:32;;;;;;;0.70;0.60;;;;;;;;;;5073976;28;20426;-75
2022/02/26 05:28:58;;;;;;;0.70;0.50;;;;;;;;;;5072638;28;20518;-75
2022/02/26 05:31:27;;;;;;;0.70;0.50;;;;;;;;;;5060085;28;20427;-75
2022/02/26 05:33:54;;;;;;;0.70;0.50;;;;;;;;;;5055654;28;20471;-76
2022/02/26 05:36:21;;;;;;;1.40;0.70;;;;;;;;;;5071707;28;20424;-75
2022/02/26 05:38:48;;;;;;;0.70;0.50;;;;;;;;;;5072116;28;20908;-76
2022/02/26 05:41:15;;;;;;;0.70;0.60;;;;;;;;;;5067027;28;20474;-76
2022/02/26 05:43:42;;;;;;;0.75;0.73;;;;;;;;;;5052301;28;20460;-75
2022/02/26 05:46:10;;;;;;;0.70;0.50;;;;;;;;;;5053111;28;20747;-75
2022/02/26 05:48:39;;;;;;;0.70;0.50;;;;;;;;;;5052958;28;20428;-75
2022/02/26 05:51:05;;;;;;;0.70;0.50;;;;;;;;;;5035286;28;20471;-76
2022/02/26 05:53:32;;;;;;;0.70;0.50;;;;;;;;;;5053311;28;20405;-75
2022/02/26 05:55:59;;;;;;;0.80;0.70;;;;;;;;;;5056511;28;20414;-75
2022/02/26 05:58:26;;;;;;;0.70;0.60;;;;;;;;;;5052737;28;20412;-75
2022/02/26 06:00:52;;;;;;;0.70;0.50;;;;;;;;;;5062727;28;20413;-75
2022/02/26 06:03:19;;;;;;;0.70;0.50;;;;;;;;;;5051366;28;20417;-76
2022/02/26 06:05:47;;;;;;;0.73;0.57;;;;;;;;;;5053158;28;20394;-76
2022/02/26 06:08:17;;;;;;;1.30;1.20;;;;;;;;;;5071905;28;20400;-76
2022/02/26 06:10:44;;;;;;;0.70;0.50;;;;;;;;;;5071694;28;20415;-76
2022/02/26 06:13:11;;;;;;;1.20;1.10;;;;;;;;;;5054745;28;20908;-76
2022/02/26 06:15:37;;;;;;;0.70;0.50;;;;;;;;;;5068868;28;20447;-75
2022/02/26 06:18:04;;;;;;;0.70;0.50;;;;;;;;;;5054785;28;20404;-75
2022/02/26 06:20:31;;;;;;;0.77;0.60;;;;;;;;;;5072312;28;20458;-75
2022/02/26 06:22:59;;;;;;;0.70;0.60;;;;;;;;;;5072402;28;20403;-74
2022/02/26 06:25:26;;;;;;;0.70;0.60;;;;;;;;;;5071322;28;20933;-75
2022/02/26 06:27:53;;;;;;;0.70;0.50;;;;;;;;;;5057617;28;20468;-75
2022/02/26 06:30:21;;;;;;;0.80;0.67;;;;;;;;;;5063844;28;20415;-75
2022/02/26 06:32:48;;;;;;;1.40;1.30;;;;;;;;;;5055074;28;20585;-75
2022/02/26 06:35:14;;;;;;;0.70;0.50;;;;;;;;;;5058956;28;20446;-75
2022/02/26 06:37:41;;;;;;;0.70;0.50;;;;;;;;;;5072376;28;20392;-75
2022/02/26 06:40:10;;;;;;;0.77;0.70;;;;;;;;;;5054686;28;20431;-75
2022/02/26 06:42:37;;;;;;;0.70;0.50;;;;;;;;;;5069611;28;20427;-75
2022/02/26 06:45:05;;;;;;;0.70;0.50;;;;;;;;;;5071045;28;20411;-74
2022/02/26 06:47:32;;;;;;;0.70;0.50;;;;;;;;;;5068293;28;20473;-74
2022/02/26 06:49:59;;;;;;;0.70;0.60;;;;;;;;;;5065831;28;20411;-74
2022/02/26 06:52:28;;;;;;;0.70;0.60;;;;;;;;;;5063392;28;20407;-75
2022/02/26 06:54:54;;;;;;;0.95;0.82;;;;;;;;;;5071669;28;20461;-75
2022/02/26 06:57:42;;;;;;;0.70;0.50;;;;;;;;;;5072231;28;20441;-75
2022/02/26 07:00:10;;;;;;;0.70;0.60;;;;;;;;;;5070141;28;20440;-74
2022/02/26 07:02:38;;;;;;;0.70;0.70;;;;;;;;;;5068395;28;20420;-74
2022/02/26 07:05:05;;;;;;;0.90;0.80;;;;;;;;;;5070666;28;20408;-73
2022/02/26 07:07:34;;;;;;;1.05;0.98;;;;;;;;;;5071310;28;20407;-74
2022/02/26 07:10:01;;;;;;;0.70;0.50;;;;;;;;;;5071309;28;20469;-73
2022/02/26 07:12:27;;;;;;;1.00;0.90;;;;;;;;;;5070907;28;20518;-76
2022/02/26 07:14:55;;;;;;;0.70;0.60;;;;;;;;;;5068318;28;20990;-74
2022/02/26 07:17:22;;;;;;;1.70;1.60;;;;;;;;;;5071283;28;20786;-74
2022/02/26 07:19:49;;;;;;;0.70;0.50;;;;;;;;;;5054135;28;20399;-75
2022/02/26 07:22:16;;;;;;;0.70;0.50;;;;;;;;;;5087483;28;20429;-75
2022/02/26 07:24:43;;;;;;;0.90;0.90;;;;;;;;;;5052507;28;20449;-76
2022/02/26 07:27:13;;;;;;;1.40;1.30;;;;;;;;;;5050942;28;20413;-75
2022/02/26 07:29:43;;;;;;;1.20;1.10;;;;;;;;;;5069839;28;20513;-73
2022/02/26 07:32:12;;;;;;;1.40;1.30;;;;;;;;;;5069345;28;20425;-74
2022/02/26 07:34:39;;;;;;;0.80;0.70;;;;;;;;;;5070866;28;20458;-74
2022/02/26 07:37:06;;;;;;;2.30;2.15;;;;;;;;;;5071464;28;20450;-74
2022/02/26 07:39:34;;;;;;;0.70;0.60;;;;;;;;;;5061983;28;20429;-74
2022/02/26 07:42:02;;;;;;;1.20;1.10;;;;;;;;;;5068574;28;20458;-74
2022/02/26 07:44:28;;;;;;;1.50;1.10;;;;;;;;;;5072437;28;20422;-74
2022/02/26 07:46:55;;;;;;;1.50;1.40;;;;;;;;;;5056164;28;20540;-75
2022/02/26 07:49:23;;;;;;;0.70;0.60;;;;;;;;;;5072368;28;20407;-74
2022/02/26 07:51:50;;;;;;;1.00;0.90;;;;;;;;;;5071783;28;20400;-76
2022/02/26 07:54:17;;;;;;;1.10;1.00;;;;;;;;;;5085681;28;20857;-73
2022/02/26 07:56:44;;;;;;;0.70;0.50;;;;;;;;;;5087668;28;20399;-74
2022/02/26 07:59:14;;;;;;;1.20;1.10;;;;;;;;;;5080897;28;20896;-74
2022/02/26 08:01:40;;;;;;;1.10;0.97;;;;;;;;;;5073014;28;20439;-74
2022/02/26 08:04:07;;;;;;;1.85;1.75;;;;;;;;;;5071704;28;20477;-73
2022/02/26 08:06:36;;;;;;;0.70;0.50;;;;;;;;;;5062928;28;20422;-73
2022/02/26 08:09:03;;;;;;;0.70;0.50;;;;;;;;;;5050788;28;20502;-74
2022/02/26 08:11:31;;;;;;;1.50;1.25;;;;;;;;;;5041064;28;20850;-74
2022/02/26 08:13:59;;;;;;;1.40;1.00;;;;;;;;;;5062514;28;20407;-74
2022/02/26 08:16:26;;;;;;;4.40;3.43;;;;;;;;;;5069576;28;20494;-74
2022/02/26 08:18:54;;;;;;;0.73;0.73;;;;;;;;;;5071226;28;20510;-74
2022/02/26 08:21:21;;;;;;;1.30;0.80;;;;;;;;;;5071655;28;20823;-74
2022/02/26 08:23:50;;;;;;;0.88;0.88;;;;;;;;;;5070629;28;20477;-74
2022/02/26 08:26:17;;;;;;;1.80;1.40;;;;;;;;;;5068372;28;20811;-75
2022/02/26 08:28:43;;;;;;;1.20;1.10;;;;;;;;;;5070464;28;20399;-74
2022/02/26 08:31:10;;;;;;;1.90;1.60;;;;;;;;;;5069505;28;20811;-74
2022/02/26 08:33:38;;;;;;;1.10;1.00;;;;;;;;;;5070395;28;20852;-74
2022/02/26 08:36:05;;;;;;;0.77;0.55;;;;;;;;;;5069256;28;20411;-74
2022/02/26 08:38:32;;;;;;;2.30;1.40;;;;;;;;;;5051315;28;20457;-74
2022/02/26 08:41:01;;;;;;;1.83;1.73;;;;;;;;;;5051983;28;20406;-74
2022/02/26 08:43:28;;;;;;;1.10;0.70;;;;;;;;;;5052680;28;20419;-74
2022/02/26 08:45:55;;;;;;;0.70;0.52;;;;;;;;;;5065648;28;20451;-75
2022/02/26 08:48:22;;;;;;;1.25;1.15;;;;;;;;;;5068900;28;20451;-75
2022/02/26 08:50:49;;;;;;;0.80;0.70;;;;;;;;;;5070350;28;21014;-76
2022/02/26 08:53:16;;;;;;;1.30;1.10;;;;;;;;;;5070367;28;20535;-76
2022/02/26 08:55:42;;;;;;;3.38;0.90;;;;;;;;;;5068486;28;20411;-74
2022/02/26 08:58:13;;;;;;;0.70;0.50;;;;;;;;;;5054745;28;20409;-74
2022/02/26 09:00:40;;;;;;;1.10;0.80;;;;;;;;;;5076203;28;20490;-75
2022/02/26 09:03:07;;;;;;;1.50;1.40;;;;;;;;;;5049692;28;20992;-75
2022/02/26 09:05:34;;;;;;;1.80;1.70;;;;;;;;;;5079551;28;20459;-74
2022/02/26 09:08:02;;;;;;;3.80;2.38;;;;;;;;;;5068894;28;20442;-75
2022/02/26 09:10:28;;;;;;;1.10;1.00;;;;;;;;;;5070353;28;20431;-77
2022/02/26 09:12:55;;;;;;;1.15;1.02;;;;;;;;;;5066688;28;20417;-77
2022/02/26 09:15:23;;;;;;;1.70;1.60;;;;;;;;;;5052987;28;20529;-76
2022/02/26 09:17:50;;;;;;;1.30;1.05;;;;;;;;;;5060002;28;20419;-77
2022/02/26 09:20:20;;;;;;;5.70;1.60;;;;;;;;;;5068318;28;20787;-77
2022/02/26 09:22:47;;;;;;;1.40;0.70;;;;;;;;;;5070106;28;20903;-77
2022/02/26 09:25:14;;;;;;;1.40;1.30;;;;;;;;;;5072031;28;20407;-77
2022/02/26 09:27:43;;;;;;;2.40;2.20;;;;;;;;;;5072069;28;20419;-77
2022/02/26 09:30:14;;;;;;;1.77;1.33;;;;;;;;;;5071556;28;20427;-76
2022/02/26 09:32:42;;;;;;;1.92;1.77;;;;;;;;;;5072073;28;20408;-77
2022/02/26 09:35:09;;;;;;;1.48;1.30;;;;;;;;;;5073273;28;20406;-78
2022/02/26 09:37:36;;;;;;;2.20;1.50;;;;;;;;;;5073105;28;20928;-77
2022/02/26 09:40:04;;;;;;;2.40;1.00;;;;;;;;;;5069440;28;20415;-77
2022/02/26 09:42:31;;;;;;;2.70;1.90;;;;;;;;;;5051813;28;20801;-78
2022/02/26 09:44:58;;;;;;;1.50;1.40;;;;;;;;;;5062196;28;20423;-78
2022/02/26 09:47:25;;;;;;;3.43;1.80;;;;;;;;;;5070331;28;20507;-77
2022/02/26 09:49:53;;;;;;;1.80;1.50;;;;;;;;;;5070875;28;20738;-77
2022/02/26 09:52:23;;;;;;;5.00;2.90;;;;;;;;;;5071118;28;20427;-77
2022/02/26 09:54:50;;;;;;;2.65;1.90;;;;;;;;;;5071148;28;21134;-78
2022/02/26 09:57:21;;;;;;;1.10;1.00;;;;;;;;;;5072048;28;20473;-78
2022/02/26 09:59:48;;;;;;;1.40;1.30;;;;;;;;;;5073658;28;20414;-78
2022/02/26 10:02:15;;;;;;;2.47;2.30;;;;;;;;;;5072768;28;20760;-78
2022/02/26 10:04:52;;;;;;;1.13;1.02;;;;;;;;;;5054292;28;20436;-78
2022/02/26 10:07:22;;;;;;;1.98;1.85;;;;;;;;;;5066551;28;20668;-78
2022/02/26 10:09:49;;;;;;;3.22;1.58;;;;;;;;;;5070992;28;21150;-79
2022/02/26 10:12:17;;;;;;;2.60;1.70;;;;;;;;;;5049069;28;20444;-77
2022/02/26 10:14:44;;;;;;;2.80;1.88;;;;;;;;;;5088552;28;20411;-79
2022/02/26 10:17:11;;;;;;;5.20;1.67;;;;;;;;;;5068241;28;20503;-78
2022/02/26 10:19:38;;;;;;;0.95;0.88;;;;;;;;;;5071565;28;20435;-79
2022/02/26 10:22:08;;;;;;;2.53;1.35;;;;;;;;;;5065605;28;20421;-80
2022/02/26 10:24:37;;;;;;;1.80;1.50;;;;;;;;;;5052845;28;20912;-79
2022/02/26 10:27:06;;;;;;;1.45;1.30;;;;;;;;;;5052518;28;20813;-79
2022/02/26 10:29:37;;;;;;;1.33;1.23;;;;;;;;;;5053549;28;20409;-78
2022/02/26 10:32:06;;;;;;;1.90;1.07;;;;;;;;;;5053852;28;20897;-80
2022/02/26 10:34:34;;;;;;;3.03;1.02;;;;;;;;;;5036122;28;20421;-79
2022/02/26 10:37:02;;;;;;;1.10;0.87;;;;;;;;;;5057208;28;20857;-79
2022/02/26 10:39:37;;;;;;;1.25;1.15;;;;;;;;;;5059295;28;20885;-79
2022/02/26 10:42:06;;;;;;;2.20;0.90;;;;;;;;;;5060565;28;20471;-77
2022/02/26 10:44:33;;;;;;;2.50;2.30;;;;;;;;;;5067068;28;20404;-79
2022/02/26 10:47:04;;;;;;;3.30;1.90;;;;;;;;;;5068437;28;20481;-79
2022/02/26 10:49:31;;;;;;;1.70;1.40;;;;;;;;;;5056660;28;20420;-79
2022/02/26 10:52:04;;;;;;;1.40;1.30;;;;;;;;;;5071898;28;20420;-79
2022/02/26 10:54:31;;;;;;;1.73;1.63;;;;;;;;;;5072209;28;21216;-79
2022/02/26 10:57:03;;;;;;;1.27;0.90;;;;;;;;;;5069840;28;20432;-79
2022/02/26 10:59:34;;;;;;;1.87;1.00;;;;;;;;;;5072715;28;20396;-80
2022/02/26 11:02:04;;;;;;;1.00;0.90;;;;;;;;;;5055819;28;20416;-80
2022/02/26 11:04:31;;;;;;;1.92;1.13;;;;;;;;;;5070686;28;20467;-80
2022/02/26 11:06:59;;;;;;;1.47;1.37;;;;;;;;;;5045047;28;20409;-79
2022/02/26 11:09:26;;;;;;;1.90;1.30;;;;;;;;;;5071153;28;20415;-80
2022/02/26 11:11:54;;;;;;;1.57;1.27;;;;;;;;;;5072101;28;20415;-79
2022/02/26 11:14:23;;;;;;;1.65;1.05;;;;;;;;;;5057101;28;20774;-78
2022/02/26 11:16:52;;;;;;;1.52;1.40;;;;;;;;;;5051984;28;20511;-79
2022/02/26 11:19:22;;;;;;;4.10;0.90;;;;;;;;;;5051888;28;20436;-79
2022/02/26 11:21:49;;;;;;;1.10;0.80;;;;;;;;;;5051062;28;20397;-78
2022/02/26 11:24:17;;;;;;;1.50;1.20;;;;;;;;;;5059207;28;20407;-81
2022/02/26 11:26:45;;;;;;;1.10;1.00;;;;;;;;;;5053370;28;20416;-81
2022/02/26 11:29:12;;;;;;;1.07;0.97;;;;;;;;;;5053970;28;21002;-80
2022/02/26 11:31:44;;;;;;;2.50;2.30;;;;;;;;;;5062167;28;20419;-80
2022/02/26 11:34:11;;;;;;;0.70;0.60;;;;;;;;;;5064680;28;20417;-81
2022/02/26 11:36:47;;;;;;;1.10;0.90;;;;;;;;;;5075835;28;20953;-80
2022/02/26 11:39:23;;;;;;;1.40;1.20;;;;;;;;;;5048698;28;20488;-81
2022/02/26 11:42:11;;;;;;;0.90;0.80;;;;;;;;;;5044236;28;20414;-80
2022/02/26 11:44:38;;;;;;;1.85;1.42;;;;;;;;;;5066533;28;20402;-81
2022/02/26 11:47:14;;;;;;;0.90;0.80;;;;;;;;;;5050055;28;20451;-77
2022/02/26 11:49:54;;;;;;;0.80;0.70;;;;;;;;;;5051541;28;20440;-77
2022/02/26 11:52:36;;;;;;;0.80;0.70;;;;;;;;;;5066706;28;20414;-77
2022/02/26 11:55:18;;;;;;;1.02;0.75;;;;;;;;;;5052570;28;20467;-77
2022/02/26 11:57:45;;;;;;;1.50;1.00;;;;;;;;;;5070617;28;20407;-76
2022/02/26 12:00:14;;;;;;;1.30;0.90;;;;;;;;;;5071162;28;20872;-76
2022/02/26 12:02:42;;;;;;;1.00;1.00;;;;;;;;;;5051794;28;20411;-78
2022/02/26 12:05:21;;;;;;;0.90;0.80;;;;;;;;;;5069939;28;20415;-77
2022/02/26 12:07:49;;;;;;;0.70;0.60;;;;;;;;;;5069986;28;20947;-76
2022/02/26 12:10:15;;;;;;;0.70;0.60;;;;;;;;;;5054436;28;20420;-76
2022/02/26 12:12:47;;;;;;;0.90;0.80;;;;;;;;;;5067792;28;21017;-76
2022/02/26 12:15:15;;;;;;;0.70;0.60;;;;;;;;;;5055324;28;20405;-77
2022/02/26 12:17:46;;;;;;;0.90;0.70;;;;;;;;;;5035430;28;20409;-76
2022/02/26 12:20:15;;;;;;;1.50;0.80;;;;;;;;;;5038069;28;20424;-76
2022/02/26 12:22:45;;;;;;;1.60;0.80;;;;;;;;;;5052544;28;20401;-78
2022/02/26 12:25:13;;;;;;;0.70;0.60;;;;;;;;;;5072708;28;20412;-76
2022/02/26 12:27:41;;;;;;;1.30;1.00;;;;;;;;;;5074464;28;20434;-76
2022/02/26 12:30:13;;;;;;;0.70;0.60;;;;;;;;;;5072193;28;20406;-77
2022/02/26 12:32:51;;;;;;;0.98;0.88;;;;;;;;;;5064808;28;20421;-77
2022/02/26 12:35:23;;;;;;;1.30;1.20;;;;;;;;;;5064431;28;20454;-78
2022/02/26 12:37:50;;;;;;;1.00;0.80;;;;;;;;;;5071401;28;20457;-76
2022/02/26 12:40:20;;;;;;;0.80;0.63;;;;;;;;;;5067857;28;20961;-76
2022/02/26 12:42:47;;;;;;;0.80;0.60;;;;;;;;;;5059024;28;20420;-76
2022/02/26 12:45:18;;;;;;;0.70;0.50;;;;;;;;;;5070244;28;20465;-76
2022/02/26 12:47:46;;;;;;;1.60;0.90;;;;;;;;;;5050549;28;20527;-76
2022/02/26 12:50:14;;;;;;;1.40;1.30;;;;;;;;;;5049934;28;20423;-76
2022/02/26 12:52:44;;;;;;;0.80;0.70;;;;;;;;;;5058344;28;20917;-77
2022/02/26 12:55:12;;;;;;;0.90;0.80;;;;;;;;;;5069541;28;20407;-76
2022/02/26 12:57:39;;;;;;;0.80;0.50;;;;;;;;;;5053023;28;20396;-75
2022/02/26 13:00:09;;;;;;;0.77;0.60;;;;;;;;;;5066422;28;20420;-76
2022/02/26 13:02:37;;;;;;;0.90;0.70;;;;;;;;;;5055542;28;20404;-76
2022/02/26 13:05:05;;;;;;;1.10;1.00;;;;;;;;;;5072053;28;20983;-76
2022/02/26 13:07:33;;;;;;;0.70;0.50;;;;;;;;;;5072078;28;20416;-76
2022/02/26 13:10:00;;;;;;;1.40;1.10;;;;;;;;;;5074208;28;20844;-76
2022/02/26 13:12:27;;;;;;;1.40;1.30;;;;;;;;;;5055557;28;20426;-76
2022/02/26 13:14:56;;;;;;;0.80;0.70;;;;;;;;;;5071292;28;20423;-76
2022/02/26 13:17:22;;;;;;;0.70;0.50;;;;;;;;;;5089390;28;20817;-76
2022/02/26 13:19:50;;;;;;;1.00;0.60;;;;;;;;;;5085880;28;20480;-76
2022/02/26 13:22:17;;;;;;;0.85;0.70;;;;;;;;;;5073745;28;20533;-76
2022/02/26 13:24:49;;;;;;;0.80;0.80;;;;;;;;;;5072451;28;20438;-76
2022/02/26 13:27:18;;;;;;;1.50;1.03;;;;;;;;;;5073761;28;20438;-76
2022/02/26 13:29:47;;;;;;;0.70;0.50;;;;;;;;;;5075679;28;20830;-76
2022/02/26 13:32:16;;;;;;;0.70;0.50;;;;;;;;;;5091386;28;20426;-75
2022/02/26 13:34:51;;;;;;;1.40;1.30;;;;;;;;;;5077066;28;20455;-76
2022/02/26 13:37:19;;;;;;;0.80;0.70;;;;;;;;;;5043560;28;20898;-76
2022/02/26 13:39:48;;;;;;;1.15;1.05;;;;;;;;;;5053947;28;20405;-76
2022/02/26 13:42:18;;;;;;;0.70;0.50;;;;;;;;;;5055020;28;20445;-76
2022/02/26 13:44:48;;;;;;;0.80;0.70;;;;;;;;;;5037219;28;20428;-75
2022/02/26 13:47:16;;;;;;;1.08;0.90;;;;;;;;;;5060970;28;20413;-75
2022/02/26 13:49:44;;;;;;;0.70;0.50;;;;;;;;;;5035958;28;20509;-75
2022/02/26 13:52:11;;;;;;;0.70;0.60;;;;;;;;;;5038184;28;20420;-75
2022/02/26 13:54:39;;;;;;;0.70;0.60;;;;;;;;;;5072601;28;20403;-74
2022/02/26 13:57:08;;;;;;;0.80;0.70;;;;;;;;;;5054337;28;20449;-76
2022/02/26 13:59:35;;;;;;;0.70;0.60;;;;;;;;;;5053201;28;20765;-77
2022/02/26 14:02:01;;;;;;;0.70;0.50;;;;;;;;;;5060958;28;20764;-77
2022/02/26 14:04:30;;;;;;;0.80;0.60;;;;;;;;;;5058733;28;20496;-75
2022/02/26 14:06:56;;;;;;;1.00;0.90;;;;;;;;;;5046100;28;20515;-75
2022/02/26 14:09:26;;;;;;;0.70;0.50;;;;;;;;;;5072355;28;20853;-77
2022/02/26 14:11:54;;;;;;;2.00;0.90;;;;;;;;;;5068980;28;20447;-75
2022/02/26 14:14:24;;;;;;;0.70;0.55;;;;;;;;;;5062855;28;20408;-75
2022/02/26 14:16:51;;;;;;;0.70;0.60;;;;;;;;;;5070739;28;20419;-76
2022/02/26 14:19:19;;;;;;;0.70;0.50;;;;;;;;;;5070355;28;20546;-78
2022/02/26 14:21:51;;;;;;;0.70;0.60;;;;;;;;;;5072007;28;20411;-75
2022/02/26 14:24:18;;;;;;;0.70;0.50;;;;;;;;;;5072917;28;20423;-76
2022/02/26 14:26:49;;;;;;;0.90;0.90;;;;;;;;;;5070756;28;20461;-76
2022/02/26 14:29:27;;;;;;;0.80;0.80;;;;;;;;;;5068359;28;20758;-76
2022/02/26 14:32:01;;;;;;;0.70;0.60;;;;;;;;;;5065398;28;20415;-75
2022/02/26 14:34:28;;;;;;;0.70;0.50;;;;;;;;;;5053913;28;20996;-76
2022/02/26 14:36:55;;;;;;;0.70;0.50;;;;;;;;;;5061172;28;20481;-76
2022/02/26 14:39:25;;;;;;;1.40;1.30;;;;;;;;;;5071488;28;20502;-76
2022/02/26 14:41:53;;;;;;;1.20;1.10;;;;;;;;;;5072655;28;20447;-76
2022/02/26 14:44:21;;;;;;;0.80;0.70;;;;;;;;;;5069241;28;20479;-75
2022/02/26 14:46:50;;;;;;;1.20;1.00;;;;;;;;;;5064849;28;20409;-76
2022/02/26 14:49:17;;;;;;;0.80;0.70;;;;;;;;;;5050416;28;20447;-76
2022/02/26 14:51:46;;;;;;;0.80;0.60;;;;;;;;;;5035058;28;20463;-76
2022/02/26 14:54:14;;;;;;;0.87;0.63;;;;;;;;;;5050939;28;20417;-75